Time;durP1;ratioP1;P1;durP2;ratioP2;P2;SDS_P1;SDS_P2;PMS_P1;PMS_P2;Temp;Humidity;BMP_temperature;BMP_pressure;BME280_temperature;BME280_humidity;BME280_pressure;Samples;Min_cycle;Max_cycle;Signal;HPM_P1;HPM_P2
2021/05/13 00:00:36;;;;;;;;;;;20.30;44.00;;;;;;463105;256;1837;-46
2021/05/13 00:02:37;;;;;;;;;;;20.30;44.00;;;;;;462861;256;1082;-46
2021/05/13 00:04:39;;;;;;;;;;;20.40;44.00;;;;;;462825;255;1069;-46
2021/05/13 00:06:40;;;;;;;;;;;20.40;43.90;;;;;;462928;255;1047;-46
2021/05/13 00:08:41;;;;;;;;;;;20.30;43.90;;;;;;462869;256;2206;-46
2021/05/13 00:10:42;;;;;;;;;;;20.30;43.80;;;;;;462959;255;1074;-46
2021/05/13 00:12:49;;;;;;;;;;;20.40;43.90;;;;;;462814;256;1070;-46
2021/05/13 00:14:45;;;;;;;;;;;20.40;43.90;;;;;;462689;257;2052;-46
2021/05/13 00:16:46;;;;;;;;;;;20.40;43.80;;;;;;462985;255;1070;-46
2021/05/13 00:18:48;;;;;;;;;;;20.40;43.80;;;;;;462929;255;1072;-46
2021/05/13 00:20:49;;;;;;;;;;;20.40;43.80;;;;;;462706;256;1291;-46
2021/05/13 00:22:50;;;;;;;;;;;20.50;43.80;;;;;;463123;256;1119;-46
2021/05/13 00:24:51;;;;;;;;;;;20.50;43.80;;;;;;462877;256;1080;-46
2021/05/13 00:26:58;;;;;;;;;;;20.50;43.80;;;;;;463039;256;1420;-46
2021/05/13 00:28:54;;;;;;;;;;;20.50;43.80;;;;;;462570;256;2421;-46
2021/05/13 00:30:56;;;;;;;;;;;20.50;43.70;;;;;;463013;256;1177;-46
2021/05/13 00:32:57;;;;;;;;;;;20.30;44.20;;;;;;462791;256;1220;-46
2021/05/13 00:34:58;;;;;;;;;;;19.80;45.30;;;;;;463129;256;1081;-46
2021/05/13 00:36:59;;;;;;;;;;;19.40;46.30;;;;;;462878;255;1349;-46
2021/05/13 00:39:01;;;;;;;;;;;19.10;47.20;;;;;;462801;255;1200;-46
2021/05/13 00:41:02;;;;;;;;;;;18.90;47.60;;;;;;462983;255;1053;-46
2021/05/13 00:43:03;;;;;;;;;;;18.80;47.90;;;;;;463088;256;1091;-46
2021/05/13 00:45:05;;;;;;;;;;;18.70;48.20;;;;;;462875;256;1063;-46
2021/05/13 00:47:06;;;;;;;;;;;18.50;48.50;;;;;;462937;256;2175;-46
2021/05/13 00:49:10;;;;;;;;;;;18.40;48.60;;;;;;462878;256;1117;-46
2021/05/13 00:51:08;;;;;;;;;;;18.40;48.90;;;;;;462700;256;1730;-46
2021/05/13 00:53:10;;;;;;;;;;;18.30;49.00;;;;;;463196;254;1331;-46
2021/05/13 00:55:11;;;;;;;;;;;18.30;49.10;;;;;;462947;256;1240;-46
2021/05/13 00:57:12;;;;;;;;;;;18.30;49.30;;;;;;462757;256;1436;-46
2021/05/13 00:59:14;;;;;;;;;;;18.30;49.20;;;;;;463030;256;1101;-46
2021/05/13 01:01:16;;;;;;;;;;;18.30;49.20;;;;;;462875;256;1361;-46
2021/05/13 01:03:16;;;;;;;;;;;18.30;49.20;;;;;;462952;255;2293;-46
2021/05/13 01:05:17;;;;;;;;;;;18.30;49.20;;;;;;462841;256;1243;-46
2021/05/13 01:07:19;;;;;;;;;;;18.30;49.30;;;;;;462821;256;2219;-46
2021/05/13 01:09:22;;;;;;;;;;;18.20;49.50;;;;;;462988;256;1194;-46
2021/05/13 01:11:22;;;;;;;;;;;18.10;49.60;;;;;;462800;257;2671;-46
2021/05/13 01:13:25;;;;;;;;;;;18.10;49.70;;;;;;463084;256;1076;-46
2021/05/13 01:15:28;;;;;;;;;;;18.00;49.70;;;;;;462984;257;2218;-46
2021/05/13 01:17:38;;;;;;;;;;;18.00;49.80;;;;;;462731;255;1344;-46
2021/05/13 01:19:28;;;;;;;;;;;18.00;49.90;;;;;;462726;255;2380;-46
2021/05/13 01:21:29;;;;;;;;;;;17.90;49.90;;;;;;462871;256;1186;-46
2021/05/13 01:23:30;;;;;;;;;;;17.90;50.00;;;;;;463079;256;1173;-46
2021/05/13 01:25:31;;;;;;;;;;;17.90;50.10;;;;;;462882;254;1503;-46
2021/05/13 01:27:33;;;;;;;;;;;17.90;50.20;;;;;;462896;256;2203;-46
2021/05/13 01:29:34;;;;;;;;;;;17.90;50.20;;;;;;463021;256;1101;-46
2021/05/13 01:31:35;;;;;;;;;;;17.80;50.10;;;;;;462966;256;1125;-46
2021/05/13 01:33:37;;;;;;;;;;;17.80;50.20;;;;;;462971;256;999;-46
2021/05/13 01:35:38;;;;;;;;;;;17.80;50.20;;;;;;462952;256;1069;-46
2021/05/13 01:37:39;;;;;;;;;;;17.90;50.10;;;;;;463045;255;1105;-46
2021/05/13 01:39:40;;;;;;;;;;;17.80;50.20;;;;;;462834;257;1352;-46
2021/05/13 01:41:42;;;;;;;;;;;17.90;50.20;;;;;;462854;256;1086;-46
2021/05/13 01:43:43;;;;;;;;;;;17.90;50.00;;;;;;462891;256;1076;-46
2021/05/13 01:45:44;;;;;;;;;;;17.90;50.00;;;;;;463199;255;1082;-46
2021/05/13 01:47:46;;;;;;;;;;;17.80;50.00;;;;;;463178;255;2143;-46
2021/05/13 01:49:47;;;;;;;;;;;17.80;50.20;;;;;;463132;256;1102;-45
2021/05/13 01:51:48;;;;;;;;;;;17.80;50.10;;;;;;462865;253;1081;-46
2021/05/13 01:53:49;;;;;;;;;;;17.80;50.10;;;;;;463206;255;1332;-46
2021/05/13 01:55:51;;;;;;;;;;;17.80;50.10;;;;;;462952;257;1442;-46
2021/05/13 01:57:52;;;;;;;;;;;17.80;50.30;;;;;;463160;256;1095;-46
2021/05/13 01:59:53;;;;;;;;;;;17.80;50.40;;;;;;462879;256;1091;-46
2021/05/13 02:01:55;;;;;;;;;;;17.70;50.40;;;;;;463032;256;1214;-46
2021/05/13 02:03:56;;;;;;;;;;;17.70;50.30;;;;;;462983;256;1086;-46
2021/05/13 02:05:57;;;;;;;;;;;17.70;50.30;;;;;;463030;256;1287;-46
2021/05/13 02:07:58;;;;;;;;;;;17.70;50.30;;;;;;462935;256;2218;-46
2021/05/13 02:10:00;;;;;;;;;;;17.70;50.50;;;;;;462903;255;1156;-46
2021/05/13 02:12:03;;;;;;;;;;;17.70;50.40;;;;;;463037;256;1300;-45
2021/05/13 02:14:02;;;;;;;;;;;17.60;50.50;;;;;;462826;255;1368;-46
2021/05/13 02:16:03;;;;;;;;;;;17.60;50.60;;;;;;462757;256;1167;-46
2021/05/13 02:18:05;;;;;;;;;;;17.70;50.50;;;;;;462857;256;1143;-46
2021/05/13 02:20:06;;;;;;;;;;;17.60;50.60;;;;;;462812;255;1094;-46
2021/05/13 02:22:07;;;;;;;;;;;17.60;50.50;;;;;;462786;256;1310;-46
2021/05/13 02:24:09;;;;;;;;;;;17.60;50.40;;;;;;463076;255;1107;-46
2021/05/13 02:26:10;;;;;;;;;;;17.70;50.40;;;;;;462858;256;1156;-46
2021/05/13 02:28:11;;;;;;;;;;;17.70;50.40;;;;;;462867;253;2160;-46
2021/05/13 02:30:13;;;;;;;;;;;17.70;50.40;;;;;;462962;255;1161;-46
2021/05/13 02:32:14;;;;;;;;;;;17.70;50.30;;;;;;462928;254;1196;-46
2021/05/13 02:34:15;;;;;;;;;;;17.70;50.20;;;;;;462952;256;1190;-46
2021/05/13 02:36:16;;;;;;;;;;;17.70;50.20;;;;;;463207;256;1255;-46
2021/05/13 02:38:18;;;;;;;;;;;17.60;50.30;;;;;;463053;256;1217;-46
2021/05/13 02:40:19;;;;;;;;;;;17.60;50.60;;;;;;462900;256;1571;-46
2021/05/13 02:42:20;;;;;;;;;;;17.60;50.50;;;;;;462935;256;1224;-46
2021/05/13 02:44:22;;;;;;;;;;;17.50;50.60;;;;;;463044;256;1243;-46
2021/05/13 02:46:23;;;;;;;;;;;17.50;50.60;;;;;;462870;256;1190;-46
2021/05/13 02:48:24;;;;;;;;;;;17.50;50.60;;;;;;462956;255;2156;-46
2021/05/13 02:50:25;;;;;;;;;;;17.60;50.60;;;;;;463015;256;1111;-46
2021/05/13 02:52:27;;;;;;;;;;;17.50;50.60;;;;;;462882;255;1102;-46
2021/05/13 02:54:29;;;;;;;;;;;17.50;50.60;;;;;;462962;253;1251;-46
2021/05/13 02:56:30;;;;;;;;;;;17.60;50.50;;;;;;462844;256;1237;-46
2021/05/13 02:58:31;;;;;;;;;;;17.50;50.50;;;;;;463182;255;1054;-46
2021/05/13 03:00:35;;;;;;;;;;;17.60;50.60;;;;;;462892;256;1174;-46
2021/05/13 03:02:34;;;;;;;;;;;17.60;50.60;;;;;;462750;257;1408;-46
2021/05/13 03:04:36;;;;;;;;;;;17.50;50.50;;;;;;463009;256;1082;-46
2021/05/13 03:06:38;;;;;;;;;;;17.60;50.50;;;;;;462847;257;1185;-46
2021/05/13 03:08:39;;;;;;;;;;;17.60;50.30;;;;;;462901;256;2164;-46
2021/05/13 03:10:44;;;;;;;;;;;18.00;49.40;;;;;;462837;256;1420;-46
2021/05/13 03:12:46;;;;;;;;;;;18.40;48.40;;;;;;462844;256;1431;-46
2021/05/13 03:14:46;;;;;;;;;;;18.70;47.70;;;;;;462757;255;1927;-46
2021/05/13 03:16:47;;;;;;;;;;;18.90;47.20;;;;;;463240;256;2294;-46
2021/05/13 03:18:50;;;;;;;;;;;19.00;46.80;;;;;;462988;254;1065;-46
2021/05/13 03:20:53;;;;;;;;;;;19.10;46.50;;;;;;462770;256;2143;-46
2021/05/13 03:22:54;;;;;;;;;;;19.20;46.30;;;;;;462723;255;1675;-46
2021/05/13 03:24:54;;;;;;;;;;;19.30;46.10;;;;;;462996;256;2364;-46
2021/05/13 03:27:03;;;;;;;;;;;19.30;45.90;;;;;;462825;256;2483;-46
2021/05/13 03:28:57;;;;;;;;;;;19.40;45.80;;;;;;462905;257;2204;-46
2021/05/13 03:30:58;;;;;;;;;;;19.50;45.60;;;;;;462988;256;1089;-46
2021/05/13 03:33:00;;;;;;;;;;;19.50;45.50;;;;;;463120;253;1123;-46
2021/05/13 03:35:01;;;;;;;;;;;19.60;45.40;;;;;;463075;255;1098;-46
2021/05/13 03:37:02;;;;;;;;;;;19.60;45.30;;;;;;463157;256;1463;-46
2021/05/13 03:39:03;;;;;;;;;;;19.70;45.20;;;;;;462773;256;1159;-46
2021/05/13 03:41:05;;;;;;;;;;;19.70;45.20;;;;;;462962;255;1314;-46
2021/05/13 03:43:06;;;;;;;;;;;19.70;45.00;;;;;;463042;256;1082;-46
2021/05/13 03:45:07;;;;;;;;;;;19.80;45.00;;;;;;463068;256;1154;-46
2021/05/13 03:47:08;;;;;;;;;;;19.80;44.90;;;;;;462920;255;1211;-45
2021/05/13 03:49:10;;;;;;;;;;;19.80;44.80;;;;;;463078;254;2156;-46
2021/05/13 03:51:11;;;;;;;;;;;19.90;44.80;;;;;;462801;256;1184;-46
2021/05/13 03:53:12;;;;;;;;;;;19.90;44.70;;;;;;463273;255;1077;-45
2021/05/13 03:55:14;;;;;;;;;;;19.90;44.70;;;;;;462952;256;1170;-46
2021/05/13 03:57:15;;;;;;;;;;;20.00;44.60;;;;;;462875;256;1186;-46
2021/05/13 03:59:18;;;;;;;;;;;20.00;44.50;;;;;;462943;257;1116;-46
2021/05/13 04:01:29;;;;;;;;;;;20.00;44.50;;;;;;463003;256;2494;-46
2021/05/13 04:03:19;;;;;;;;;;;20.00;44.40;;;;;;462351;258;2050;-46
2021/05/13 04:05:20;;;;;;;;;;;20.10;44.40;;;;;;462811;256;1083;-46
2021/05/13 04:07:21;;;;;;;;;;;20.10;44.40;;;;;;462738;256;1242;-46
2021/05/13 04:09:23;;;;;;;;;;;20.10;44.30;;;;;;463021;256;2168;-46
2021/05/13 04:11:24;;;;;;;;;;;20.10;44.30;;;;;;462794;255;1060;-46
2021/05/13 04:13:26;;;;;;;;;;;20.20;44.30;;;;;;462911;256;1188;-46
2021/05/13 04:15:26;;;;;;;;;;;20.20;44.30;;;;;;462845;255;1795;-46
2021/05/13 04:17:28;;;;;;;;;;;20.20;44.30;;;;;;462928;256;1149;-46
2021/05/13 04:19:29;;;;;;;;;;;20.20;44.20;;;;;;463300;256;1052;-46
2021/05/13 04:21:30;;;;;;;;;;;20.20;44.20;;;;;;462959;255;1372;-46
2021/05/13 04:23:32;;;;;;;;;;;20.30;44.20;;;;;;462906;256;1411;-46
2021/05/13 04:25:33;;;;;;;;;;;20.20;44.10;;;;;;462875;255;1192;-46
2021/05/13 04:27:34;;;;;;;;;;;20.30;44.10;;;;;;463044;256;1185;-46
2021/05/13 04:29:35;;;;;;;;;;;20.30;44.00;;;;;;462865;255;2155;-46
2021/05/13 04:31:37;;;;;;;;;;;20.30;44.10;;;;;;462867;255;1296;-46
2021/05/13 04:33:38;;;;;;;;;;;20.30;44.10;;;;;;462984;257;1112;-46
2021/05/13 04:35:39;;;;;;;;;;;20.40;44.10;;;;;;462808;256;1180;-46
2021/05/13 04:37:41;;;;;;;;;;;20.40;44.00;;;;;;462884;256;1360;-46
2021/05/13 04:39:42;;;;;;;;;;;20.40;44.10;;;;;;462983;256;1130;-46
2021/05/13 04:41:43;;;;;;;;;;;20.40;44.00;;;;;;462896;256;1188;-46
2021/05/13 04:43:44;;;;;;;;;;;20.40;44.00;;;;;;462988;257;1115;-46
2021/05/13 04:45:46;;;;;;;;;;;20.40;43.90;;;;;;462909;256;1600;-46
2021/05/13 04:48:03;;;;;;;;;;;20.40;43.90;;;;;;462848;256;2058;-46
2021/05/13 04:49:53;;;;;;;;;;;20.50;43.90;;;;;;462374;256;2211;-46
2021/05/13 04:51:55;;;;;;;;;;;20.50;43.90;;;;;;462941;255;1130;-46
2021/05/13 04:53:56;;;;;;;;;;;20.50;43.90;;;;;;462855;256;1368;-46
2021/05/13 04:55:57;;;;;;;;;;;20.50;43.80;;;;;;462999;256;1159;-46
2021/05/13 04:57:58;;;;;;;;;;;20.50;43.80;;;;;;462883;256;1073;-46
2021/05/13 05:00:02;;;;;;;;;;;20.50;43.80;;;;;;463050;256;1081;-46
2021/05/13 05:02:01;;;;;;;;;;;20.60;43.80;;;;;;462731;256;2232;-46
2021/05/13 05:04:02;;;;;;;;;;;20.70;43.60;;;;;;462939;256;1075;-46
2021/05/13 05:06:04;;;;;;;;;;;20.50;43.90;;;;;;463161;256;1273;-46
2021/05/13 05:08:05;;;;;;;;;;;20.00;44.80;;;;;;462871;255;2267;-46
2021/05/13 05:10:06;;;;;;;;;;;19.60;46.00;;;;;;462842;255;2195;-46
2021/05/13 05:12:11;;;;;;;;;;;19.20;46.80;;;;;;462905;256;1278;-46
2021/05/13 05:14:09;;;;;;;;;;;19.00;47.30;;;;;;462777;257;2381;-46
2021/05/13 05:16:10;;;;;;;;;;;18.80;47.90;;;;;;462865;255;1153;-46
2021/05/13 05:18:11;;;;;;;;;;;18.80;48.10;;;;;;463164;256;1281;-46
2021/05/13 05:20:13;;;;;;;;;;;18.70;48.30;;;;;;463300;255;1246;-46
2021/05/13 05:22:14;;;;;;;;;;;18.60;48.70;;;;;;462772;256;1313;-46
2021/05/13 05:24:15;;;;;;;;;;;18.50;48.90;;;;;;462944;254;1577;-45
2021/05/13 05:26:17;;;;;;;;;;;18.50;48.90;;;;;;462995;256;1324;-46
2021/05/13 05:28:18;;;;;;;;;;;18.40;49.10;;;;;;462936;257;1094;-46
2021/05/13 05:30:19;;;;;;;;;;;18.30;49.10;;;;;;462810;256;2192;-46
2021/05/13 05:32:21;;;;;;;;;;;18.30;49.30;;;;;;463215;256;1650;-46
2021/05/13 05:34:22;;;;;;;;;;;18.20;49.40;;;;;;462877;254;1200;-46
2021/05/13 05:36:26;;;;;;;;;;;18.30;49.50;;;;;;462932;255;1194;-46
2021/05/13 05:38:25;;;;;;;;;;;18.20;49.40;;;;;;462736;257;1798;-45
2021/05/13 05:40:26;;;;;;;;;;;18.20;49.50;;;;;;462902;255;1318;-46
2021/05/13 05:42:28;;;;;;;;;;;18.20;49.40;;;;;;463101;256;1189;-46
2021/05/13 05:44:28;;;;;;;;;;;18.30;49.50;;;;;;462871;257;2147;-46
2021/05/13 05:46:30;;;;;;;;;;;18.20;49.60;;;;;;462912;255;1524;-46
2021/05/13 05:48:32;;;;;;;;;;;18.20;49.50;;;;;;462751;256;1094;-46
2021/05/13 05:50:33;;;;;;;;;;;18.10;49.60;;;;;;462797;256;2235;-46
2021/05/13 05:52:34;;;;;;;;;;;18.10;49.60;;;;;;462911;255;1131;-46
2021/05/13 05:54:35;;;;;;;;;;;18.10;49.70;;;;;;462799;256;1093;-46
2021/05/13 05:56:37;;;;;;;;;;;18.10;49.70;;;;;;462768;256;1202;-46
2021/05/13 05:58:38;;;;;;;;;;;18.00;49.90;;;;;;462850;255;1190;-46
2021/05/13 06:00:39;;;;;;;;;;;17.90;50.10;;;;;;462972;256;1156;-46
2021/05/13 06:02:41;;;;;;;;;;;17.80;50.30;;;;;;463393;254;1284;-46
2021/05/13 06:04:42;;;;;;;;;;;17.80;50.30;;;;;;463069;256;1101;-46
2021/05/13 06:06:43;;;;;;;;;;;17.90;50.30;;;;;;462715;256;1256;-46
2021/05/13 06:08:45;;;;;;;;;;;17.80;50.30;;;;;;463006;255;1143;-46
2021/05/13 06:10:46;;;;;;;;;;;17.90;50.40;;;;;;462744;256;2156;-46
2021/05/13 06:12:48;;;;;;;;;;;17.90;50.40;;;;;;462822;257;1556;-46
2021/05/13 06:14:50;;;;;;;;;;;17.80;50.30;;;;;;462752;256;1144;-45
2021/05/13 06:16:51;;;;;;;;;;;17.80;50.40;;;;;;462815;255;2268;-46
2021/05/13 06:18:52;;;;;;;;;;;17.80;50.40;;;;;;462781;256;1106;-46
2021/05/13 06:20:53;;;;;;;;;;;17.80;50.40;;;;;;462727;254;1179;-46
2021/05/13 06:22:55;;;;;;;;;;;17.80;50.30;;;;;;463054;254;1113;-46
2021/05/13 06:24:56;;;;;;;;;;;17.80;50.50;;;;;;462726;256;1254;-46
2021/05/13 06:26:57;;;;;;;;;;;17.70;50.60;;;;;;462708;256;1215;-46
2021/05/13 06:28:59;;;;;;;;;;;17.70;50.50;;;;;;462939;256;2148;-45
2021/05/13 06:31:00;;;;;;;;;;;17.70;50.40;;;;;;462851;255;1179;-46
2021/05/13 06:33:01;;;;;;;;;;;17.70;50.50;;;;;;462843;256;1209;-46
2021/05/13 06:35:02;;;;;;;;;;;17.70;50.50;;;;;;463026;256;1082;-46
2021/05/13 06:37:04;;;;;;;;;;;17.70;50.30;;;;;;462943;253;1357;-45
2021/05/13 06:39:05;;;;;;;;;;;17.70;50.50;;;;;;462845;256;1094;-46
2021/05/13 06:41:07;;;;;;;;;;;17.70;50.50;;;;;;463051;256;1108;-45
2021/05/13 06:43:07;;;;;;;;;;;17.70;50.50;;;;;;462799;255;1789;-46
2021/05/13 06:45:09;;;;;;;;;;;17.70;50.40;;;;;;462779;256;1065;-46
2021/05/13 06:47:11;;;;;;;;;;;17.70;50.50;;;;;;462770;256;1530;-46
2021/05/13 06:49:11;;;;;;;;;;;17.80;50.20;;;;;;462803;255;2194;-46
2021/05/13 06:51:13;;;;;;;;;;;17.80;50.30;;;;;;462761;255;1467;-46
2021/05/13 06:53:14;;;;;;;;;;;17.70;50.30;;;;;;462922;256;1220;-46
2021/05/13 06:55:15;;;;;;;;;;;17.70;50.40;;;;;;462943;256;1058;-46
2021/05/13 06:57:17;;;;;;;;;;;17.70;50.50;;;;;;462935;255;1174;-46
2021/05/13 06:59:18;;;;;;;;;;;17.60;50.70;;;;;;462979;256;1063;-46
2021/05/13 07:01:19;;;;;;;;;;;17.60;50.70;;;;;;462718;256;1166;-45
2021/05/13 07:03:21;;;;;;;;;;;17.60;50.60;;;;;;462782;256;1127;-46
2021/05/13 07:05:22;;;;;;;;;;;17.70;50.50;;;;;;463162;256;1104;-46
2021/05/13 07:07:23;;;;;;;;;;;17.60;50.60;;;;;;462800;255;1286;-46
2021/05/13 07:09:24;;;;;;;;;;;17.70;50.60;;;;;;462745;256;2215;-46
2021/05/13 07:11:26;;;;;;;;;;;17.60;50.50;;;;;;462730;255;1508;-46
2021/05/13 07:13:27;;;;;;;;;;;17.60;50.70;;;;;;462895;256;1122;-45
2021/05/13 07:15:29;;;;;;;;;;;17.60;50.60;;;;;;462904;256;1057;-45
2021/05/13 07:17:30;;;;;;;;;;;17.60;50.60;;;;;;462764;256;1284;-46
2021/05/13 07:19:31;;;;;;;;;;;17.60;50.60;;;;;;462862;256;1104;-45
2021/05/13 07:21:32;;;;;;;;;;;17.60;50.50;;;;;;462898;256;1197;-46
2021/05/13 07:23:34;;;;;;;;;;;17.60;50.60;;;;;;462958;256;1097;-46
2021/05/13 07:25:35;;;;;;;;;;;17.60;50.60;;;;;;463079;255;1093;-46
2021/05/13 07:27:36;;;;;;;;;;;17.60;50.60;;;;;;462873;256;1280;-46
2021/05/13 07:29:38;;;;;;;;;;;17.70;50.30;;;;;;462829;254;2151;-46
2021/05/13 07:31:39;;;;;;;;;;;18.10;49.30;;;;;;462839;256;1065;-46
2021/05/13 07:33:40;;;;;;;;;;;18.50;48.30;;;;;;463063;256;1097;-46
2021/05/13 07:35:41;;;;;;;;;;;18.80;47.70;;;;;;462752;255;1081;-46
2021/05/13 07:37:43;;;;;;;;;;;18.90;47.20;;;;;;462752;256;1091;-46
2021/05/13 07:39:44;;;;;;;;;;;19.10;46.90;;;;;;462741;256;1131;-46
2021/05/13 07:41:45;;;;;;;;;;;19.20;46.60;;;;;;462708;256;1192;-46
2021/05/13 07:43:49;;;;;;;;;;;19.20;46.30;;;;;;462840;256;1098;-46
2021/05/13 07:45:49;;;;;;;;;;;19.30;46.10;;;;;;462823;257;1390;-46
2021/05/13 07:47:49;;;;;;;;;;;19.40;45.90;;;;;;462826;254;1376;-46
2021/05/13 07:49:50;;;;;;;;;;;19.40;45.80;;;;;;462891;256;2208;-46
2021/05/13 07:51:52;;;;;;;;;;;19.50;45.70;;;;;;462798;256;1054;-46
2021/05/13 07:53:53;;;;;;;;;;;19.60;45.60;;;;;;463057;256;1101;-46
2021/05/13 07:55:54;;;;;;;;;;;19.60;45.50;;;;;;462806;257;1205;-46
2021/05/13 07:57:55;;;;;;;;;;;19.60;45.30;;;;;;462813;256;1237;-45
2021/05/13 07:59:57;;;;;;;;;;;19.70;45.30;;;;;;462763;255;1178;-46
2021/05/13 08:01:58;;;;;;;;;;;19.70;45.30;;;;;;462893;256;1124;-46
2021/05/13 08:03:59;;;;;;;;;;;19.80;45.20;;;;;;462860;256;1193;-46
2021/05/13 08:06:01;;;;;;;;;;;19.80;45.10;;;;;;462884;256;1086;-46
2021/05/13 08:08:02;;;;;;;;;;;19.80;45.00;;;;;;462822;255;1067;-46
2021/05/13 08:10:03;;;;;;;;;;;19.80;44.90;;;;;;462821;256;2214;-46
2021/05/13 08:12:04;;;;;;;;;;;19.90;44.90;;;;;;462859;255;1218;-46
2021/05/13 08:14:06;;;;;;;;;;;19.90;44.80;;;;;;462899;256;1088;-46
2021/05/13 08:16:07;;;;;;;;;;;20.00;44.80;;;;;;462938;256;1359;-46
2021/05/13 08:18:08;;;;;;;;;;;20.00;44.70;;;;;;462982;256;1093;-46
2021/05/13 08:20:10;;;;;;;;;;;20.00;44.70;;;;;;463071;254;1207;-46
2021/05/13 08:22:11;;;;;;;;;;;20.00;44.60;;;;;;462855;256;1115;-46
2021/05/13 08:24:12;;;;;;;;;;;20.10;44.60;;;;;;463050;255;1054;-46
2021/05/13 08:26:13;;;;;;;;;;;20.10;44.50;;;;;;462919;255;1229;-46
2021/05/13 08:28:15;;;;;;;;;;;20.10;44.50;;;;;;462760;256;1202;-46
2021/05/13 08:30:16;;;;;;;;;;;20.10;44.40;;;;;;463000;256;2203;-46
2021/05/13 08:32:18;;;;;;;;;;;20.20;44.50;;;;;;462800;256;1270;-46
2021/05/13 08:34:21;;;;;;;;;;;20.20;44.40;;;;;;462783;256;1032;-46
2021/05/13 08:36:22;;;;;;;;;;;20.20;44.30;;;;;;462692;257;1284;-46
2021/05/13 08:38:23;;;;;;;;;;;20.20;44.30;;;;;;462788;256;1069;-46
2021/05/13 08:40:25;;;;;;;;;;;20.20;44.30;;;;;;462826;256;1076;-46
2021/05/13 08:42:26;;;;;;;;;;;20.20;44.30;;;;;;463031;256;1204;-46
2021/05/13 08:44:27;;;;;;;;;;;20.30;44.30;;;;;;462969;257;1110;-46
2021/05/13 08:46:28;;;;;;;;;;;20.30;44.30;;;;;;462782;256;1220;-46
2021/05/13 08:48:30;;;;;;;;;;;20.30;44.20;;;;;;462869;256;1115;-46
2021/05/13 08:50:31;;;;;;;;;;;20.30;44.20;;;;;;462949;255;2152;-46
2021/05/13 08:52:32;;;;;;;;;;;20.30;44.10;;;;;;462866;256;1303;-46
2021/05/13 08:54:33;;;;;;;;;;;20.30;44.10;;;;;;462786;256;1210;-46
2021/05/13 08:56:35;;;;;;;;;;;20.30;44.20;;;;;;462950;255;1150;-46
2021/05/13 08:58:36;;;;;;;;;;;20.40;44.10;;;;;;462833;256;1210;-46
2021/05/13 09:00:37;;;;;;;;;;;20.40;44.00;;;;;;462881;256;1430;-46
2021/05/13 09:02:38;;;;;;;;;;;20.40;44.10;;;;;;462689;257;1211;-46
2021/05/13 09:04:40;;;;;;;;;;;20.40;44.00;;;;;;462792;255;1131;-46
2021/05/13 09:06:43;;;;;;;;;;;20.40;44.00;;;;;;462824;255;1052;-46
2021/05/13 09:08:42;;;;;;;;;;;20.40;44.00;;;;;;463029;257;2130;-46
2021/05/13 09:10:44;;;;;;;;;;;20.50;44.00;;;;;;462895;255;2148;-46
2021/05/13 09:12:45;;;;;;;;;;;20.50;43.90;;;;;;462866;256;1195;-46
2021/05/13 09:14:46;;;;;;;;;;;20.50;43.90;;;;;;462979;254;1095;-46
2021/05/13 09:16:48;;;;;;;;;;;20.50;44.00;;;;;;462954;256;1154;-46
2021/05/13 09:18:49;;;;;;;;;;;20.50;43.90;;;;;;462776;256;1352;-46
2021/05/13 09:20:50;;;;;;;;;;;20.50;43.90;;;;;;462711;256;1245;-46
2021/05/13 09:22:52;;;;;;;;;;;20.60;43.90;;;;;;462813;256;1099;-46
2021/05/13 09:24:54;;;;;;;;;;;20.60;43.80;;;;;;462943;257;1101;-46
2021/05/13 09:26:54;;;;;;;;;;;20.30;44.50;;;;;;462736;255;2077;-46
2021/05/13 09:28:56;;;;;;;;;;;19.80;45.40;;;;;;462802;256;1237;-46
2021/05/13 09:30:57;;;;;;;;;;;19.40;46.50;;;;;;462911;256;2176;-46
2021/05/13 09:32:58;;;;;;;;;;;19.10;47.20;;;;;;462894;255;1166;-46
2021/05/13 09:34:59;;;;;;;;;;;18.90;47.70;;;;;;462861;256;1111;-46
2021/05/13 09:37:01;;;;;;;;;;;18.70;48.20;;;;;;462779;254;1179;-46
2021/05/13 09:39:02;;;;;;;;;;;18.60;48.50;;;;;;462785;255;1085;-46
2021/05/13 09:41:03;;;;;;;;;;;18.50;48.90;;;;;;462751;256;1303;-46
2021/05/13 09:43:05;;;;;;;;;;;18.50;49.00;;;;;;462804;257;1081;-46
2021/05/13 09:45:06;;;;;;;;;;;18.50;49.00;;;;;;462869;256;1124;-46
2021/05/13 09:47:07;;;;;;;;;;;18.40;49.10;;;;;;462795;256;1161;-46
2021/05/13 09:49:08;;;;;;;;;;;18.40;49.20;;;;;;462754;256;1068;-46
2021/05/13 09:51:10;;;;;;;;;;;18.30;49.40;;;;;;462927;255;2136;-46
2021/05/13 09:53:11;;;;;;;;;;;18.30;49.50;;;;;;462741;255;1120;-46
2021/05/13 09:55:12;;;;;;;;;;;18.20;49.60;;;;;;462787;254;1054;-46
2021/05/13 09:57:14;;;;;;;;;;;18.20;49.70;;;;;;462811;256;1485;-46
2021/05/13 09:59:15;;;;;;;;;;;18.10;49.80;;;;;;462886;255;1198;-46
2021/05/13 10:01:16;;;;;;;;;;;18.10;50.00;;;;;;462645;256;1198;-46
2021/05/13 10:03:18;;;;;;;;;;;18.00;50.00;;;;;;462838;256;1295;-46
2021/05/13 10:05:19;;;;;;;;;;;18.00;50.20;;;;;;462852;256;2057;-46
2021/05/13 10:07:20;;;;;;;;;;;18.00;50.10;;;;;;462814;256;1149;-46
2021/05/13 10:09:21;;;;;;;;;;;18.00;50.10;;;;;;463066;254;1204;-46
2021/05/13 10:11:22;;;;;;;;;;;18.00;50.00;;;;;;462781;256;2215;-46
2021/05/13 10:13:28;;;;;;;;;;;18.00;50.10;;;;;;462776;256;1114;-46
2021/05/13 10:15:26;;;;;;;;;;;18.00;50.20;;;;;;462778;254;2374;-46
2021/05/13 10:17:27;;;;;;;;;;;18.00;50.20;;;;;;463128;255;1178;-45
2021/05/13 10:19:28;;;;;;;;;;;17.90;50.20;;;;;;462862;256;1201;-46
2021/05/13 10:21:29;;;;;;;;;;;17.90;50.30;;;;;;462746;256;1279;-46
2021/05/13 10:23:31;;;;;;;;;;;17.90;50.40;;;;;;462972;256;1066;-46
2021/05/13 10:25:33;;;;;;;;;;;17.90;50.30;;;;;;462926;256;1221;-46
2021/05/13 10:27:33;;;;;;;;;;;17.90;50.30;;;;;;462758;255;1262;-46
2021/05/13 10:29:35;;;;;;;;;;;17.90;50.30;;;;;;462894;256;1172;-46
2021/05/13 10:31:36;;;;;;;;;;;17.90;50.20;;;;;;462983;256;2216;-46
2021/05/13 10:33:38;;;;;;;;;;;17.90;50.20;;;;;;462907;255;1121;-46
2021/05/13 10:35:39;;;;;;;;;;;17.90;50.40;;;;;;463005;256;1096;-46
2021/05/13 10:37:41;;;;;;;;;;;17.90;50.30;;;;;;462836;256;1166;-46
2021/05/13 10:39:41;;;;;;;;;;;17.80;50.30;;;;;;462899;256;2116;-45
2021/05/13 10:41:43;;;;;;;;;;;17.80;50.50;;;;;;462854;256;1589;-46
2021/05/13 10:43:44;;;;;;;;;;;17.70;50.60;;;;;;462695;257;1590;-46
2021/05/13 10:45:45;;;;;;;;;;;17.70;50.70;;;;;;462757;256;1218;-46
2021/05/13 10:47:46;;;;;;;;;;;17.70;50.60;;;;;;462875;256;1701;-46
2021/05/13 10:49:48;;;;;;;;;;;17.80;50.60;;;;;;462903;256;1134;-46
2021/05/13 10:51:49;;;;;;;;;;;17.80;50.40;;;;;;462765;256;2215;-46
2021/05/13 10:53:50;;;;;;;;;;;17.80;50.30;;;;;;462953;256;1125;-46
2021/05/13 10:55:52;;;;;;;;;;;17.80;50.40;;;;;;462807;256;1178;-46
2021/05/13 10:57:53;;;;;;;;;;;17.80;50.40;;;;;;462859;253;1243;-46
2021/05/13 10:59:54;;;;;;;;;;;17.70;50.50;;;;;;462990;256;1194;-46
2021/05/13 11:01:57;;;;;;;;;;;17.70;50.50;;;;;;462929;256;1686;-46
2021/05/13 11:03:57;;;;;;;;;;;17.70;50.60;;;;;;463012;255;2050;-46
2021/05/13 11:05:58;;;;;;;;;;;17.70;50.70;;;;;;462827;255;1237;-46
2021/05/13 11:07:59;;;;;;;;;;;17.60;50.70;;;;;;462981;255;1270;-46
2021/05/13 11:10:01;;;;;;;;;;;17.70;50.70;;;;;;462728;257;1092;-46
2021/05/13 11:12:02;;;;;;;;;;;17.70;50.60;;;;;;462710;256;2223;-46
2021/05/13 11:14:03;;;;;;;;;;;17.60;50.80;;;;;;462786;255;1095;-46
2021/05/13 11:16:05;;;;;;;;;;;17.60;50.90;;;;;;462789;256;1285;-46
2021/05/13 11:18:16;;;;;;;;;;;17.60;50.80;;;;;;462834;256;1082;-46
2021/05/13 11:20:16;;;;;;;;;;;17.60;50.80;;;;;;463200;255;1971;-46
2021/05/13 11:22:17;;;;;;;;;;;17.60;50.70;;;;;;462771;255;1162;-46
2021/05/13 11:24:19;;;;;;;;;;;17.60;50.60;;;;;;462872;256;1255;-46
2021/05/13 11:26:20;;;;;;;;;;;17.60;50.60;;;;;;462818;253;1118;-46
2021/05/13 11:28:21;;;;;;;;;;;17.60;50.50;;;;;;462985;255;1046;-46
2021/05/13 11:30:22;;;;;;;;;;;17.70;50.50;;;;;;462881;256;1213;-46
2021/05/13 11:32:24;;;;;;;;;;;17.70;50.50;;;;;;462875;256;2219;-46
2021/05/13 11:34:25;;;;;;;;;;;17.70;50.40;;;;;;462807;256;1102;-46
2021/05/13 11:36:27;;;;;;;;;;;17.60;50.70;;;;;;462822;256;1177;-46
2021/05/13 11:38:28;;;;;;;;;;;17.60;50.80;;;;;;462794;255;2346;-46
2021/05/13 11:40:29;;;;;;;;;;;17.50;50.90;;;;;;462741;256;1574;-46
2021/05/13 11:42:30;;;;;;;;;;;17.50;50.90;;;;;;463118;256;1127;-46
2021/05/13 11:44:31;;;;;;;;;;;17.50;51.00;;;;;;462856;254;1292;-46
2021/05/13 11:46:36;;;;;;;;;;;17.50;50.80;;;;;;462912;256;1200;-46
2021/05/13 11:48:34;;;;;;;;;;;17.60;50.70;;;;;;462697;257;1780;-46
2021/05/13 11:50:35;;;;;;;;;;;17.50;50.70;;;;;;462999;256;1172;-46
2021/05/13 11:52:37;;;;;;;;;;;17.60;50.70;;;;;;462880;256;2206;-46
2021/05/13 11:54:38;;;;;;;;;;;17.90;50.00;;;;;;463251;255;1140;-46
2021/05/13 11:56:39;;;;;;;;;;;18.30;48.80;;;;;;462792;256;1356;-46